sensor_id;sensor_type;location;lat;lon;timestamp;temperature;humidity
871;DHT22;422;51.280;7.236;2022-10-10T00:01:14;10.90;99.90
871;DHT22;422;51.280;7.236;2022-10-10T00:03:42;10.90;99.90
871;DHT22;422;51.280;7.236;2022-10-10T00:06:10;10.80;99.90
871;DHT22;422;51.280;7.236;2022-10-10T00:08:37;10.90;99.90
871;DHT22;422;51.280;7.236;2022-10-10T00:11:05;10.80;99.90
871;DHT22;422;51.280;7.236;2022-10-10T00:13:34;10.80;99.90
871;DHT22;422;51.280;7.236;2022-10-10T00:16:03;10.70;99.90
871;DHT22;422;51.280;7.236;2022-10-10T00:18:30;10.70;99.90
871;DHT22;422;51.280;7.236;2022-10-10T00:20:58;10.70;99.90
871;DHT22;422;51.280;7.236;2022-10-10T00:23:28;10.70;99.90
871;DHT22;422;51.280;7.236;2022-10-10T00:25:55;10.70;99.90
871;DHT22;422;51.280;7.236;2022-10-10T00:28:23;10.70;99.90
871;DHT22;422;51.280;7.236;2022-10-10T00:30:52;10.70;99.90
871;DHT22;422;51.280;7.236;2022-10-10T00:33:21;10.60;99.90
871;DHT22;422;51.280;7.236;2022-10-10T00:35:48;10.60;99.90
871;DHT22;422;51.280;7.236;2022-10-10T00:38:18;10.50;99.90
871;DHT22;422;51.280;7.236;2022-10-10T00:40:47;10.50;99.90
871;DHT22;422;51.280;7.236;2022-10-10T00:43:16;10.40;99.90
871;DHT22;422;51.280;7.236;2022-10-10T00:45:45;10.40;99.90
871;DHT22;422;51.280;7.236;2022-10-10T00:48:15;10.40;99.90
871;DHT22;422;51.280;7.236;2022-10-10T00:50:51;10.40;99.90
871;DHT22;422;51.280;7.236;2022-10-10T00:53:24;10.30;99.90
871;DHT22;422;51.280;7.236;2022-10-10T00:55:53;10.30;99.90
871;DHT22;422;51.280;7.236;2022-10-10T00:58:21;10.20;99.90
871;DHT22;422;51.280;7.236;2022-10-10T01:00:51;10.30;99.90
871;DHT22;422;51.280;7.236;2022-10-10T01:03:25;10.20;99.90
871;DHT22;422;51.280;7.236;2022-10-10T01:05:53;10.20;99.90
871;DHT22;422;51.280;7.236;2022-10-10T01:08:21;10.20;99.90
871;DHT22;422;51.280;7.236;2022-10-10T01:11:04;10.20;99.90
871;DHT22;422;51.280;7.236;2022-10-10T01:13:37;10.30;99.90
871;DHT22;422;51.280;7.236;2022-10-10T01:16:11;10.30;99.90
871;DHT22;422;51.280;7.236;2022-10-10T01:18:49;10.30;99.90
871;DHT22;422;51.280;7.236;2022-10-10T01:21:26;10.30;99.90
871;DHT22;422;51.280;7.236;2022-10-10T01:24:17;10.30;99.90
871;DHT22;422;51.280;7.236;2022-10-10T01:30:09;10.20;99.90
871;DHT22;422;51.280;7.236;2022-10-10T01:32:42;10.30;99.90
871;DHT22;422;51.280;7.236;2022-10-10T01:35:24;10.30;99.90
871;DHT22;422;51.280;7.236;2022-10-10T01:38:02;10.30;99.90
871;DHT22;422;51.280;7.236;2022-10-10T01:40:37;10.20;99.90
871;DHT22;422;51.280;7.236;2022-10-10T01:43:07;10.20;99.90
871;DHT22;422;51.280;7.236;2022-10-10T01:45:36;10.20;99.90
871;DHT22;422;51.280;7.236;2022-10-10T01:48:04;10.20;99.90
871;DHT22;422;51.280;7.236;2022-10-10T01:50:41;10.20;99.90
871;DHT22;422;51.280;7.236;2022-10-10T01:53:18;10.20;99.90
871;DHT22;422;51.280;7.236;2022-10-10T01:55:51;10.20;99.90
871;DHT22;422;51.280;7.236;2022-10-10T01:58:48;10.10;99.90
871;DHT22;422;51.280;7.236;2022-10-10T02:01:23;10.00;99.90
871;DHT22;422;51.280;7.236;2022-10-10T02:03:56;10.00;99.90
871;DHT22;422;51.280;7.236;2022-10-10T02:06:30;10.00;99.90
871;DHT22;422;51.280;7.236;2022-10-10T02:09:06;9.90;99.90
871;DHT22;422;51.280;7.236;2022-10-10T02:11:36;9.80;99.90
871;DHT22;422;51.280;7.236;2022-10-10T02:14:09;9.70;99.90
871;DHT22;422;51.280;7.236;2022-10-10T02:16:42;9.60;99.90
871;DHT22;422;51.280;7.236;2022-10-10T02:19:15;9.40;99.90
871;DHT22;422;51.280;7.236;2022-10-10T02:21:48;9.30;99.90
871;DHT22;422;51.280;7.236;2022-10-10T02:24:15;9.30;99.90
871;DHT22;422;51.280;7.236;2022-10-10T02:26:52;9.40;99.90
871;DHT22;422;51.280;7.236;2022-10-10T02:29:24;9.20;99.90
871;DHT22;422;51.280;7.236;2022-10-10T02:31:59;9.30;99.90
871;DHT22;422;51.280;7.236;2022-10-10T02:34:31;9.30;99.90
871;DHT22;422;51.280;7.236;2022-10-10T02:37:01;9.30;99.90
871;DHT22;422;51.280;7.236;2022-10-10T02:39:33;9.20;99.90
871;DHT22;422;51.280;7.236;2022-10-10T02:42:02;9.10;99.90
871;DHT22;422;51.280;7.236;2022-10-10T02:44:31;9.10;99.90
871;DHT22;422;51.280;7.236;2022-10-10T02:47:00;9.10;99.90
871;DHT22;422;51.280;7.236;2022-10-10T02:49:30;9.10;99.90
871;DHT22;422;51.280;7.236;2022-10-10T02:51:58;9.10;99.90
871;DHT22;422;51.280;7.236;2022-10-10T02:54:25;9.00;99.90
871;DHT22;422;51.280;7.236;2022-10-10T02:56:53;9.00;99.90
871;DHT22;422;51.280;7.236;2022-10-10T02:59:20;9.10;99.90
871;DHT22;422;51.280;7.236;2022-10-10T03:01:47;9.10;99.90
871;DHT22;422;51.280;7.236;2022-10-10T03:04:16;9.20;99.90
871;DHT22;422;51.280;7.236;2022-10-10T03:06:45;9.10;99.90
871;DHT22;422;51.280;7.236;2022-10-10T03:09:12;9.10;99.90
871;DHT22;422;51.280;7.236;2022-10-10T03:11:39;8.90;99.90
871;DHT22;422;51.280;7.236;2022-10-10T03:14:07;8.90;99.90
871;DHT22;422;51.280;7.236;2022-10-10T03:16:34;8.90;99.90
871;DHT22;422;51.280;7.236;2022-10-10T03:19:02;8.90;99.90
871;DHT22;422;51.280;7.236;2022-10-10T03:21:34;8.90;99.90
871;DHT22;422;51.280;7.236;2022-10-10T03:24:01;9.00;99.90
871;DHT22;422;51.280;7.236;2022-10-10T03:26:30;9.00;99.90
871;DHT22;422;51.280;7.236;2022-10-10T03:28:57;9.10;99.90
871;DHT22;422;51.280;7.236;2022-10-10T03:31:25;9.20;99.90
871;DHT22;422;51.280;7.236;2022-10-10T03:33:52;9.20;99.90
871;DHT22;422;51.280;7.236;2022-10-10T03:36:19;9.20;99.90
871;DHT22;422;51.280;7.236;2022-10-10T03:38:48;9.20;99.90
871;DHT22;422;51.280;7.236;2022-10-10T03:41:15;9.20;99.90
871;DHT22;422;51.280;7.236;2022-10-10T03:43:42;9.20;99.90
871;DHT22;422;51.280;7.236;2022-10-10T03:46:12;9.20;99.90
871;DHT22;422;51.280;7.236;2022-10-10T03:48:39;9.20;99.90
871;DHT22;422;51.280;7.236;2022-10-10T03:51:08;9.10;99.90
871;DHT22;422;51.280;7.236;2022-10-10T03:53:36;9.10;99.90
871;DHT22;422;51.280;7.236;2022-10-10T03:56:05;9.10;99.90
871;DHT22;422;51.280;7.236;2022-10-10T03:58:32;9.20;99.90
871;DHT22;422;51.280;7.236;2022-10-10T04:01:01;9.20;99.90
871;DHT22;422;51.280;7.236;2022-10-10T04:03:29;9.20;99.90
871;DHT22;422;51.280;7.236;2022-10-10T04:05:59;9.20;99.90
871;DHT22;422;51.280;7.236;2022-10-10T04:08:27;9.20;99.90
871;DHT22;422;51.280;7.236;2022-10-10T04:10:54;9.20;99.90
871;DHT22;422;51.280;7.236;2022-10-10T04:13:23;9.20;99.90
871;DHT22;422;51.280;7.236;2022-10-10T04:15:55;9.20;99.90
871;DHT22;422;51.280;7.236;2022-10-10T04:18:23;9.10;99.90
871;DHT22;422;51.280;7.236;2022-10-10T04:20:51;9.20;99.90
871;DHT22;422;51.280;7.236;2022-10-10T04:23:18;9.10;99.90
871;DHT22;422;51.280;7.236;2022-10-10T04:25:47;9.20;99.90
871;DHT22;422;51.280;7.236;2022-10-10T04:28:16;9.10;99.90
871;DHT22;422;51.280;7.236;2022-10-10T04:30:46;9.10;99.90
871;DHT22;422;51.280;7.236;2022-10-10T04:33:13;9.00;99.90
871;DHT22;422;51.280;7.236;2022-10-10T04:35:41;9.00;99.90
871;DHT22;422;51.280;7.236;2022-10-10T04:38:09;9.00;99.90
871;DHT22;422;51.280;7.236;2022-10-10T04:40:36;9.00;99.90
871;DHT22;422;51.280;7.236;2022-10-10T04:43:03;9.10;99.90
871;DHT22;422;51.280;7.236;2022-10-10T04:45:30;9.10;99.90
871;DHT22;422;51.280;7.236;2022-10-10T04:47:59;9.10;99.90
871;DHT22;422;51.280;7.236;2022-10-10T04:50:26;9.00;99.90
871;DHT22;422;51.280;7.236;2022-10-10T04:52:56;8.90;99.90
871;DHT22;422;51.280;7.236;2022-10-10T04:55:24;8.80;99.90
871;DHT22;422;51.280;7.236;2022-10-10T04:57:54;8.70;99.90
871;DHT22;422;51.280;7.236;2022-10-10T05:00:23;8.80;99.90
871;DHT22;422;51.280;7.236;2022-10-10T05:02:51;8.80;99.90
871;DHT22;422;51.280;7.236;2022-10-10T05:05:19;8.80;99.90
871;DHT22;422;51.280;7.236;2022-10-10T05:07:50;8.80;99.90
871;DHT22;422;51.280;7.236;2022-10-10T05:10:17;8.80;99.90
871;DHT22;422;51.280;7.236;2022-10-10T05:12:45;8.90;99.90
871;DHT22;422;51.280;7.236;2022-10-10T05:15:12;8.80;99.90
871;DHT22;422;51.280;7.236;2022-10-10T05:17:39;8.80;99.90
871;DHT22;422;51.280;7.236;2022-10-10T05:20:07;8.80;99.90
871;DHT22;422;51.280;7.236;2022-10-10T05:22:35;8.80;1.00
871;DHT22;422;51.280;7.236;2022-10-10T05:25:03;8.80;99.90
871;DHT22;422;51.280;7.236;2022-10-10T05:27:30;8.80;1.00
871;DHT22;422;51.280;7.236;2022-10-10T05:30:03;8.80;1.00
871;DHT22;422;51.280;7.236;2022-10-10T05:32:31;8.70;99.90
871;DHT22;422;51.280;7.236;2022-10-10T05:34:58;8.70;1.00
871;DHT22;422;51.280;7.236;2022-10-10T05:37:25;8.60;1.00
871;DHT22;422;51.280;7.236;2022-10-10T05:39:55;8.60;1.00
871;DHT22;422;51.280;7.236;2022-10-10T05:42:22;8.60;1.00
871;DHT22;422;51.280;7.236;2022-10-10T05:44:49;8.50;1.00
871;DHT22;422;51.280;7.236;2022-10-10T05:47:17;8.50;1.00
871;DHT22;422;51.280;7.236;2022-10-10T05:49:47;8.60;1.00
871;DHT22;422;51.280;7.236;2022-10-10T05:52:14;8.50;1.00
871;DHT22;422;51.280;7.236;2022-10-10T05:54:41;8.50;1.00
871;DHT22;422;51.280;7.236;2022-10-10T05:57:09;8.50;1.00
871;DHT22;422;51.280;7.236;2022-10-10T05:59:37;8.50;1.00
871;DHT22;422;51.280;7.236;2022-10-10T06:02:04;8.60;1.00
871;DHT22;422;51.280;7.236;2022-10-10T06:04:31;8.60;1.00
871;DHT22;422;51.280;7.236;2022-10-10T06:06:58;8.50;1.00
871;DHT22;422;51.280;7.236;2022-10-10T06:09:27;8.60;1.00
871;DHT22;422;51.280;7.236;2022-10-10T06:11:54;8.70;1.00
871;DHT22;422;51.280;7.236;2022-10-10T06:14:23;8.80;1.00
871;DHT22;422;51.280;7.236;2022-10-10T06:16:50;8.80;1.00
871;DHT22;422;51.280;7.236;2022-10-10T06:19:18;8.80;1.00
871;DHT22;422;51.280;7.236;2022-10-10T06:21:47;8.80;1.00
871;DHT22;422;51.280;7.236;2022-10-10T06:24:14;8.90;1.00
871;DHT22;422;51.280;7.236;2022-10-10T06:26:44;8.90;1.00
871;DHT22;422;51.280;7.236;2022-10-10T06:29:12;8.90;1.00
871;DHT22;422;51.280;7.236;2022-10-10T06:31:40;9.00;1.00
871;DHT22;422;51.280;7.236;2022-10-10T06:34:07;9.10;1.00
871;DHT22;422;51.280;7.236;2022-10-10T06:36:35;9.10;1.00
871;DHT22;422;51.280;7.236;2022-10-10T06:39:02;9.20;1.00
871;DHT22;422;51.280;7.236;2022-10-10T06:41:29;9.20;1.00
871;DHT22;422;51.280;7.236;2022-10-10T06:43:57;9.30;1.00
871;DHT22;422;51.280;7.236;2022-10-10T06:46:24;9.40;1.00
871;DHT22;422;51.280;7.236;2022-10-10T06:48:54;9.40;1.00
871;DHT22;422;51.280;7.236;2022-10-10T06:51:24;9.50;1.00
871;DHT22;422;51.280;7.236;2022-10-10T06:53:51;9.70;1.00
871;DHT22;422;51.280;7.236;2022-10-10T06:56:21;9.80;1.00
871;DHT22;422;51.280;7.236;2022-10-10T06:58:49;10.00;1.00
871;DHT22;422;51.280;7.236;2022-10-10T07:01:17;10.20;1.00
871;DHT22;422;51.280;7.236;2022-10-10T07:03:45;10.40;1.00
871;DHT22;422;51.280;7.236;2022-10-10T07:06:17;10.60;99.90
871;DHT22;422;51.280;7.236;2022-10-10T07:08:45;10.90;99.90
871;DHT22;422;51.280;7.236;2022-10-10T07:11:15;11.20;99.90
871;DHT22;422;51.280;7.236;2022-10-10T07:13:42;11.50;99.90
871;DHT22;422;51.280;7.236;2022-10-10T07:16:10;11.80;99.90
871;DHT22;422;51.280;7.236;2022-10-10T07:18:38;12.00;99.90
871;DHT22;422;51.280;7.236;2022-10-10T07:21:07;12.30;99.90
871;DHT22;422;51.280;7.236;2022-10-10T07:23:36;12.60;99.90
871;DHT22;422;51.280;7.236;2022-10-10T07:26:06;12.80;99.90
871;DHT22;422;51.280;7.236;2022-10-10T07:28:35;13.10;99.90
871;DHT22;422;51.280;7.236;2022-10-10T07:31:05;13.40;99.90
871;DHT22;422;51.280;7.236;2022-10-10T07:33:34;13.70;99.90
871;DHT22;422;51.280;7.236;2022-10-10T07:36:05;13.80;99.90
871;DHT22;422;51.280;7.236;2022-10-10T07:38:32;13.80;99.90
871;DHT22;422;51.280;7.236;2022-10-10T07:41:06;13.80;99.90
871;DHT22;422;51.280;7.236;2022-10-10T07:43:37;13.90;99.90
871;DHT22;422;51.280;7.236;2022-10-10T07:46:05;14.00;99.90
871;DHT22;422;51.280;7.236;2022-10-10T07:48:32;14.00;99.90
871;DHT22;422;51.280;7.236;2022-10-10T07:50:59;14.10;99.90
871;DHT22;422;51.280;7.236;2022-10-10T07:53:27;14.30;99.90
871;DHT22;422;51.280;7.236;2022-10-10T07:55:57;14.40;99.90
871;DHT22;422;51.280;7.236;2022-10-10T07:58:25;14.50;99.90
871;DHT22;422;51.280;7.236;2022-10-10T08:01:01;14.70;99.90
871;DHT22;422;51.280;7.236;2022-10-10T08:03:28;15.00;99.90
871;DHT22;422;51.280;7.236;2022-10-10T08:05:55;15.20;99.90
871;DHT22;422;51.280;7.236;2022-10-10T08:08:26;15.50;99.90
871;DHT22;422;51.280;7.236;2022-10-10T08:10:53;15.60;99.90
871;DHT22;422;51.280;7.236;2022-10-10T08:13:21;15.60;99.90
871;DHT22;422;51.280;7.236;2022-10-10T08:15:51;15.70;99.90
871;DHT22;422;51.280;7.236;2022-10-10T08:18:19;15.80;99.90
871;DHT22;422;51.280;7.236;2022-10-10T08:20:57;15.70;99.90
871;DHT22;422;51.280;7.236;2022-10-10T08:23:24;15.70;99.90
871;DHT22;422;51.280;7.236;2022-10-10T08:25:52;15.70;99.90
871;DHT22;422;51.280;7.236;2022-10-10T08:28:19;15.50;99.90
871;DHT22;422;51.280;7.236;2022-10-10T08:30:50;15.50;99.90
871;DHT22;422;51.280;7.236;2022-10-10T08:33:17;15.60;99.90
871;DHT22;422;51.280;7.236;2022-10-10T08:35:49;15.80;99.90
871;DHT22;422;51.280;7.236;2022-10-10T08:38:16;16.10;99.90
871;DHT22;422;51.280;7.236;2022-10-10T08:40:45;16.20;99.90
871;DHT22;422;51.280;7.236;2022-10-10T08:43:18;16.20;99.90
871;DHT22;422;51.280;7.236;2022-10-10T08:45:50;16.40;99.90
871;DHT22;422;51.280;7.236;2022-10-10T08:48:23;16.40;99.90
871;DHT22;422;51.280;7.236;2022-10-10T08:50:57;16.20;99.90
871;DHT22;422;51.280;7.236;2022-10-10T08:53:27;16.00;99.90
871;DHT22;422;51.280;7.236;2022-10-10T08:55:58;16.10;99.90
871;DHT22;422;51.280;7.236;2022-10-10T08:58:28;16.40;99.90
871;DHT22;422;51.280;7.236;2022-10-10T09:01:03;16.40;99.90
871;DHT22;422;51.280;7.236;2022-10-10T09:03:36;16.60;99.90
871;DHT22;422;51.280;7.236;2022-10-10T09:06:19;16.80;99.90
871;DHT22;422;51.280;7.236;2022-10-10T09:08:56;16.90;99.90
871;DHT22;422;51.280;7.236;2022-10-10T09:11:46;16.80;99.90
871;DHT22;422;51.280;7.236;2022-10-10T09:14:30;17.00;99.90
871;DHT22;422;51.280;7.236;2022-10-10T09:17:08;17.10;99.90
871;DHT22;422;51.280;7.236;2022-10-10T09:19:59;17.40;99.90
871;DHT22;422;51.280;7.236;2022-10-10T09:22:32;17.50;99.90
871;DHT22;422;51.280;7.236;2022-10-10T09:25:03;17.80;99.90
871;DHT22;422;51.280;7.236;2022-10-10T09:27:36;18.00;99.90
871;DHT22;422;51.280;7.236;2022-10-10T09:30:09;18.30;99.90
871;DHT22;422;51.280;7.236;2022-10-10T09:32:46;18.50;99.90
871;DHT22;422;51.280;7.236;2022-10-10T09:35:18;18.30;99.90
871;DHT22;422;51.280;7.236;2022-10-10T09:37:49;19.00;99.90
871;DHT22;422;51.280;7.236;2022-10-10T09:40:24;19.20;99.90
871;DHT22;422;51.280;7.236;2022-10-10T09:42:55;19.10;99.90
871;DHT22;422;51.280;7.236;2022-10-10T09:45:26;19.60;99.90
871;DHT22;422;51.280;7.236;2022-10-10T09:47:58;20.00;99.90
871;DHT22;422;51.280;7.236;2022-10-10T09:50:26;20.00;99.90
871;DHT22;422;51.280;7.236;2022-10-10T09:52:53;19.90;99.90
871;DHT22;422;51.280;7.236;2022-10-10T09:55:27;20.10;99.90
871;DHT22;422;51.280;7.236;2022-10-10T09:58:03;20.40;99.90
871;DHT22;422;51.280;7.236;2022-10-10T10:00:38;20.90;99.90
871;DHT22;422;51.280;7.236;2022-10-10T10:03:10;21.20;99.90
871;DHT22;422;51.280;7.236;2022-10-10T10:05:39;21.40;99.90
871;DHT22;422;51.280;7.236;2022-10-10T10:08:25;21.60;99.90
871;DHT22;422;51.280;7.236;2022-10-10T10:10:53;21.50;99.90
871;DHT22;422;51.280;7.236;2022-10-10T10:13:29;21.40;99.90
871;DHT22;422;51.280;7.236;2022-10-10T10:16:05;21.50;99.90
871;DHT22;422;51.280;7.236;2022-10-10T10:18:42;20.90;99.90
871;DHT22;422;51.280;7.236;2022-10-10T10:21:18;20.70;99.90
871;DHT22;422;51.280;7.236;2022-10-10T10:23:56;20.80;99.90
871;DHT22;422;51.280;7.236;2022-10-10T10:26:27;21.40;99.90
871;DHT22;422;51.280;7.236;2022-10-10T10:28:58;21.30;99.90
871;DHT22;422;51.280;7.236;2022-10-10T10:31:39;21.20;99.90
871;DHT22;422;51.280;7.236;2022-10-10T10:34:30;21.10;99.90
871;DHT22;422;51.280;7.236;2022-10-10T10:37:03;20.50;99.90
871;DHT22;422;51.280;7.236;2022-10-10T10:39:41;20.30;99.90
871;DHT22;422;51.280;7.236;2022-10-10T10:42:21;19.90;99.90
871;DHT22;422;51.280;7.236;2022-10-10T10:44:58;19.70;99.90
871;DHT22;422;51.280;7.236;2022-10-10T10:47:38;19.60;99.90
871;DHT22;422;51.280;7.236;2022-10-10T10:50:24;19.80;99.90
871;DHT22;422;51.280;7.236;2022-10-10T10:52:58;20.10;99.90
871;DHT22;422;51.280;7.236;2022-10-10T10:55:34;20.60;99.90
871;DHT22;422;51.280;7.236;2022-10-10T10:58:36;21.30;99.90
871;DHT22;422;51.280;7.236;2022-10-10T11:01:14;21.90;99.90
871;DHT22;422;51.280;7.236;2022-10-10T11:03:49;21.80;99.90
871;DHT22;422;51.280;7.236;2022-10-10T11:06:31;21.80;99.90
871;DHT22;422;51.280;7.236;2022-10-10T11:09:07;22.00;99.90
871;DHT22;422;51.280;7.236;2022-10-10T11:11:50;22.00;99.90
871;DHT22;422;51.280;7.236;2022-10-10T11:14:44;22.00;99.90
871;DHT22;422;51.280;7.236;2022-10-10T11:17:17;22.10;99.90
871;DHT22;422;51.280;7.236;2022-10-10T11:19:51;21.30;99.90
871;DHT22;422;51.280;7.236;2022-10-10T11:22:27;21.30;99.90
871;DHT22;422;51.280;7.236;2022-10-10T11:25:02;21.60;99.90
871;DHT22;422;51.280;7.236;2022-10-10T11:27:33;21.80;99.90
871;DHT22;422;51.280;7.236;2022-10-10T11:30:14;21.80;99.90
871;DHT22;422;51.280;7.236;2022-10-10T11:32:49;21.50;99.90
871;DHT22;422;51.280;7.236;2022-10-10T11:35:24;21.40;99.90
871;DHT22;422;51.280;7.236;2022-10-10T11:38:02;21.00;99.90
871;DHT22;422;51.280;7.236;2022-10-10T11:40:45;21.10;99.90
871;DHT22;422;51.280;7.236;2022-10-10T11:43:20;21.40;99.90
871;DHT22;422;51.280;7.236;2022-10-10T11:45:54;21.30;99.90
871;DHT22;422;51.280;7.236;2022-10-10T11:48:29;21.10;99.90
871;DHT22;422;51.280;7.236;2022-10-10T11:53:57;20.70;99.90
871;DHT22;422;51.280;7.236;2022-10-10T11:56:28;20.40;99.90
871;DHT22;422;51.280;7.236;2022-10-10T11:59:01;20.60;99.90
871;DHT22;422;51.280;7.236;2022-10-10T12:01:35;20.30;99.90
871;DHT22;422;51.280;7.236;2022-10-10T12:04:10;20.60;99.90
871;DHT22;422;51.280;7.236;2022-10-10T12:06:39;20.60;99.90
871;DHT22;422;51.280;7.236;2022-10-10T12:09:13;20.20;99.90
871;DHT22;422;51.280;7.236;2022-10-10T12:11:47;20.10;99.90
871;DHT22;422;51.280;7.236;2022-10-10T12:14:18;20.10;99.90
871;DHT22;422;51.280;7.236;2022-10-10T12:16:49;20.20;99.90
871;DHT22;422;51.280;7.236;2022-10-10T12:19:18;20.30;99.90
871;DHT22;422;51.280;7.236;2022-10-10T12:21:57;20.10;99.90
871;DHT22;422;51.280;7.236;2022-10-10T12:24:27;20.00;99.90
871;DHT22;422;51.280;7.236;2022-10-10T12:27:27;19.90;99.90
871;DHT22;422;51.280;7.236;2022-10-10T12:30:19;19.80;99.90
871;DHT22;422;51.280;7.236;2022-10-10T12:32:50;19.50;99.90
871;DHT22;422;51.280;7.236;2022-10-10T12:35:32;19.40;99.90
871;DHT22;422;51.280;7.236;2022-10-10T12:38:14;19.50;99.90
871;DHT22;422;51.280;7.236;2022-10-10T12:41:06;19.50;99.90
871;DHT22;422;51.280;7.236;2022-10-10T12:43:47;19.50;99.90
871;DHT22;422;51.280;7.236;2022-10-10T12:46:26;19.50;99.90
871;DHT22;422;51.280;7.236;2022-10-10T12:49:04;19.30;99.90
871;DHT22;422;51.280;7.236;2022-10-10T12:51:35;19.60;99.90
871;DHT22;422;51.280;7.236;2022-10-10T12:54:04;19.40;99.90
871;DHT22;422;51.280;7.236;2022-10-10T12:56:40;19.50;99.90
871;DHT22;422;51.280;7.236;2022-10-10T12:59:19;20.10;99.90
871;DHT22;422;51.280;7.236;2022-10-10T13:01:52;19.80;99.90
871;DHT22;422;51.280;7.236;2022-10-10T13:04:26;19.60;99.90
871;DHT22;422;51.280;7.236;2022-10-10T13:06:59;19.60;99.90
871;DHT22;422;51.280;7.236;2022-10-10T13:09:33;19.70;99.90
871;DHT22;422;51.280;7.236;2022-10-10T13:12:21;19.70;99.90
871;DHT22;422;51.280;7.236;2022-10-10T13:14:51;19.80;99.90
871;DHT22;422;51.280;7.236;2022-10-10T13:17:22;19.80;99.90
871;DHT22;422;51.280;7.236;2022-10-10T13:19:53;19.80;99.90
871;DHT22;422;51.280;7.236;2022-10-10T13:22:23;19.60;99.90
871;DHT22;422;51.280;7.236;2022-10-10T13:24:51;19.60;99.90
871;DHT22;422;51.280;7.236;2022-10-10T13:27:39;19.70;99.90
871;DHT22;422;51.280;7.236;2022-10-10T13:30:17;20.10;99.90
871;DHT22;422;51.280;7.236;2022-10-10T13:32:49;20.70;99.90
871;DHT22;422;51.280;7.236;2022-10-10T13:35:23;21.20;99.90
871;DHT22;422;51.280;7.236;2022-10-10T13:37:58;21.50;99.90
871;DHT22;422;51.280;7.236;2022-10-10T13:40:27;21.80;99.90
871;DHT22;422;51.280;7.236;2022-10-10T13:42:56;21.20;99.90
871;DHT22;422;51.280;7.236;2022-10-10T13:45:34;20.90;99.90
871;DHT22;422;51.280;7.236;2022-10-10T13:48:24;20.40;99.90
871;DHT22;422;51.280;7.236;2022-10-10T13:51:01;20.20;99.90
871;DHT22;422;51.280;7.236;2022-10-10T13:53:33;20.20;99.90
871;DHT22;422;51.280;7.236;2022-10-10T13:56:09;20.30;99.90
871;DHT22;422;51.280;7.236;2022-10-10T13:58:41;20.70;99.90
871;DHT22;422;51.280;7.236;2022-10-10T14:01:30;21.00;99.90
871;DHT22;422;51.280;7.236;2022-10-10T14:04:02;21.30;99.90
871;DHT22;422;51.280;7.236;2022-10-10T14:06:31;21.60;99.90
871;DHT22;422;51.280;7.236;2022-10-10T14:09:06;21.40;99.90
871;DHT22;422;51.280;7.236;2022-10-10T14:11:35;21.40;99.90
871;DHT22;422;51.280;7.236;2022-10-10T14:14:06;21.30;99.90
871;DHT22;422;51.280;7.236;2022-10-10T14:16:36;21.40;99.90
871;DHT22;422;51.280;7.236;2022-10-10T14:19:11;21.40;99.90
871;DHT22;422;51.280;7.236;2022-10-10T14:21:40;21.20;99.90
871;DHT22;422;51.280;7.236;2022-10-10T14:24:08;20.70;99.90
871;DHT22;422;51.280;7.236;2022-10-10T14:26:36;20.50;99.90
871;DHT22;422;51.280;7.236;2022-10-10T14:29:04;20.30;99.90
871;DHT22;422;51.280;7.236;2022-10-10T14:31:32;20.10;99.90
871;DHT22;422;51.280;7.236;2022-10-10T14:33:59;20.10;99.90
871;DHT22;422;51.280;7.236;2022-10-10T14:36:27;20.30;99.90
871;DHT22;422;51.280;7.236;2022-10-10T14:38:54;20.50;99.90
871;DHT22;422;51.280;7.236;2022-10-10T14:41:22;20.40;99.90
871;DHT22;422;51.280;7.236;2022-10-10T14:43:53;20.20;99.90
871;DHT22;422;51.280;7.236;2022-10-10T14:46:26;20.00;99.90
871;DHT22;422;51.280;7.236;2022-10-10T14:48:53;19.90;99.90
871;DHT22;422;51.280;7.236;2022-10-10T14:51:25;19.80;99.90
871;DHT22;422;51.280;7.236;2022-10-10T14:53:52;19.60;99.90
871;DHT22;422;51.280;7.236;2022-10-10T14:56:20;19.40;99.90
871;DHT22;422;51.280;7.236;2022-10-10T14:58:47;19.40;99.90
871;DHT22;422;51.280;7.236;2022-10-10T15:01:15;19.30;99.90
871;DHT22;422;51.280;7.236;2022-10-10T15:03:52;19.30;99.90
871;DHT22;422;51.280;7.236;2022-10-10T15:06:20;19.30;99.90
871;DHT22;422;51.280;7.236;2022-10-10T15:08:47;19.30;99.90
871;DHT22;422;51.280;7.236;2022-10-10T15:11:15;19.20;99.90
871;DHT22;422;51.280;7.236;2022-10-10T15:13:43;18.90;99.90
871;DHT22;422;51.280;7.236;2022-10-10T15:16:10;18.70;99.90
871;DHT22;422;51.280;7.236;2022-10-10T15:18:37;18.40;99.90
871;DHT22;422;51.280;7.236;2022-10-10T15:21:17;18.40;99.90
871;DHT22;422;51.280;7.236;2022-10-10T15:23:45;18.20;99.90
871;DHT22;422;51.280;7.236;2022-10-10T15:26:12;18.10;99.90
871;DHT22;422;51.280;7.236;2022-10-10T15:28:39;18.10;99.90
871;DHT22;422;51.280;7.236;2022-10-10T15:31:06;18.00;99.90
871;DHT22;422;51.280;7.236;2022-10-10T15:33:38;17.90;99.90
871;DHT22;422;51.280;7.236;2022-10-10T15:36:07;17.70;99.90
871;DHT22;422;51.280;7.236;2022-10-10T15:38:38;17.50;99.90
871;DHT22;422;51.280;7.236;2022-10-10T15:41:07;17.40;99.90
871;DHT22;422;51.280;7.236;2022-10-10T15:43:42;17.30;99.90
871;DHT22;422;51.280;7.236;2022-10-10T15:46:10;17.30;99.90
871;DHT22;422;51.280;7.236;2022-10-10T15:48:37;17.20;99.90
871;DHT22;422;51.280;7.236;2022-10-10T15:51:06;17.20;99.90
871;DHT22;422;51.280;7.236;2022-10-10T15:53:36;17.20;99.90
871;DHT22;422;51.280;7.236;2022-10-10T15:56:16;17.10;99.90
871;DHT22;422;51.280;7.236;2022-10-10T15:58:44;17.00;99.90
871;DHT22;422;51.280;7.236;2022-10-10T16:01:12;17.00;99.90
871;DHT22;422;51.280;7.236;2022-10-10T16:03:43;17.10;99.90
871;DHT22;422;51.280;7.236;2022-10-10T16:06:14;17.10;99.90
871;DHT22;422;51.280;7.236;2022-10-10T16:08:44;17.00;99.90
871;DHT22;422;51.280;7.236;2022-10-10T16:11:16;17.00;99.90
871;DHT22;422;51.280;7.236;2022-10-10T16:13:46;16.90;99.90
871;DHT22;422;51.280;7.236;2022-10-10T16:16:17;16.90;99.90
871;DHT22;422;51.280;7.236;2022-10-10T16:18:45;16.90;99.90
871;DHT22;422;51.280;7.236;2022-10-10T16:21:18;16.90;99.90
871;DHT22;422;51.280;7.236;2022-10-10T16:23:48;17.00;99.90
871;DHT22;422;51.280;7.236;2022-10-10T16:26:18;17.00;99.90
871;DHT22;422;51.280;7.236;2022-10-10T16:28:48;17.00;99.90
871;DHT22;422;51.280;7.236;2022-10-10T16:31:19;17.00;99.90
871;DHT22;422;51.280;7.236;2022-10-10T16:33:47;17.00;99.90
871;DHT22;422;51.280;7.236;2022-10-10T16:36:15;17.00;99.90
871;DHT22;422;51.280;7.236;2022-10-10T16:38:48;16.90;99.90
871;DHT22;422;51.280;7.236;2022-10-10T16:41:22;16.80;99.90
871;DHT22;422;51.280;7.236;2022-10-10T16:43:50;16.80;99.90
871;DHT22;422;51.280;7.236;2022-10-10T16:46:19;16.70;99.90
871;DHT22;422;51.280;7.236;2022-10-10T16:48:47;16.70;99.90
871;DHT22;422;51.280;7.236;2022-10-10T16:51:21;16.50;99.90
871;DHT22;422;51.280;7.236;2022-10-10T16:53:51;16.50;99.90
871;DHT22;422;51.280;7.236;2022-10-10T16:56:20;16.30;99.90
871;DHT22;422;51.280;7.236;2022-10-10T16:58:48;16.30;99.90
871;DHT22;422;51.280;7.236;2022-10-10T17:01:21;16.20;99.90
871;DHT22;422;51.280;7.236;2022-10-10T17:03:50;16.10;99.90
871;DHT22;422;51.280;7.236;2022-10-10T17:06:19;16.10;99.90
871;DHT22;422;51.280;7.236;2022-10-10T17:08:51;16.00;99.90
871;DHT22;422;51.280;7.236;2022-10-10T17:11:20;16.00;99.90
871;DHT22;422;51.280;7.236;2022-10-10T17:13:48;15.90;99.90
871;DHT22;422;51.280;7.236;2022-10-10T17:16:23;15.80;99.90